Time;durP1;ratioP1;P1;durP2;ratioP2;P2;SDS_P1;SDS_P2;PMS_P1;PMS_P2;Temp;Humidity;BMP_temperature;BMP_pressure;BME280_temperature;BME280_humidity;BME280_pressure;Samples;Min_cycle;Max_cycle;Signal;HPM_P1;HPM_P2
2024/03/12 00:01:09;;;;;;;35.50;23.20;;;4.80;99.90;;;;;;4963205;28;20121;-49
2024/03/12 00:03:35;;;;;;;33.85;23.33;;;4.80;99.90;;;;;;4952668;28;20041;-45
2024/03/12 00:06:01;;;;;;;29.75;21.92;;;4.80;99.90;;;;;;4953442;28;21615;-44
2024/03/12 00:08:30;;;;;;;36.63;24.20;;;4.80;99.90;;;;;;4959451;28;20100;-45
2024/03/12 00:10:55;;;;;;;32.60;22.13;;;4.80;99.90;;;;;;4932470;28;20105;-44
2024/03/12 00:13:23;;;;;;;33.47;22.17;;;4.80;99.90;;;;;;4941759;28;20120;-43
2024/03/12 00:15:48;;;;;;;33.22;23.55;;;4.80;99.90;;;;;;4960766;28;21396;-46
2024/03/12 00:18:14;;;;;;;32.33;24.00;;;4.80;99.90;;;;;;4952090;28;20046;-45
2024/03/12 00:20:40;;;;;;;36.40;24.40;;;4.80;99.90;;;;;;4963206;28;20034;-44
2024/03/12 00:23:07;;;;;;;32.17;22.80;;;4.80;99.90;;;;;;4951528;28;20077;-47
2024/03/12 00:25:33;;;;;;;37.28;23.77;;;4.80;99.90;;;;;;4930848;28;22039;-44
2024/03/12 00:27:59;;;;;;;34.88;24.10;;;4.80;99.90;;;;;;4951626;28;20087;-46
2024/03/12 00:30:25;;;;;;;35.75;24.10;;;4.80;99.90;;;;;;4951063;28;20094;-45
2024/03/12 00:32:56;;;;;;;34.72;22.25;;;4.80;99.90;;;;;;4921890;28;20045;-45
2024/03/12 00:35:23;;;;;;;33.63;23.15;;;4.80;99.90;;;;;;4955984;28;20092;-46
2024/03/12 00:37:50;;;;;;;37.20;23.25;;;4.80;99.90;;;;;;4934723;28;20368;-46
2024/03/12 00:40:17;;;;;;;35.10;22.85;;;4.80;99.90;;;;;;4949689;28;20033;-53
2024/03/12 00:42:43;;;;;;;32.35;23.35;;;4.80;99.90;;;;;;4956656;28;20057;-46
2024/03/12 00:45:13;;;;;;;41.00;25.50;;;4.80;99.90;;;;;;4951470;28;20034;-45
2024/03/12 00:47:42;;;;;;;39.50;23.52;;;4.80;99.90;;;;;;4953518;28;20053;-47
2024/03/12 00:50:11;;;;;;;38.92;24.63;;;4.80;99.90;;;;;;4933566;28;20100;-46
2024/03/12 00:52:38;;;;;;;33.80;23.52;;;4.80;99.90;;;;;;4916986;28;20049;-46
2024/03/12 00:55:05;;;;;;;36.38;23.52;;;4.80;99.90;;;;;;4953758;28;20069;-48
2024/03/12 00:57:34;;;;;;;33.60;23.52;;;4.80;99.90;;;;;;4936527;28;20046;-50
2024/03/12 01:00:00;;;;;;;37.22;24.92;;;4.80;99.90;;;;;;4947007;28;20052;-44
2024/03/12 01:02:25;;;;;;;36.67;23.10;;;4.70;99.90;;;;;;4946303;28;20034;-44
2024/03/12 01:04:52;;;;;;;35.38;24.02;;;4.70;99.90;;;;;;4940310;28;20037;-51
2024/03/12 01:07:19;;;;;;;34.40;23.45;;;4.70;99.90;;;;;;4908882;28;20146;-46
2024/03/12 01:09:46;;;;;;;33.45;25.25;;;4.70;99.90;;;;;;4958713;28;20482;-46
2024/03/12 01:12:13;;;;;;;35.10;24.25;;;4.70;99.90;;;;;;4962317;28;20037;-46
2024/03/12 01:14:39;;;;;;;35.35;23.60;;;4.70;99.90;;;;;;4951493;28;20035;-43
2024/03/12 01:17:07;;;;;;;34.17;22.88;;;4.70;99.90;;;;;;4938725;28;20554;-44
2024/03/12 01:19:35;;;;;;;34.58;24.38;;;4.60;99.90;;;;;;4922440;28;21867;-49
2024/03/12 01:22:01;;;;;;;35.88;23.95;;;4.60;99.90;;;;;;4971586;28;20045;-44
2024/03/12 01:24:27;;;;;;;34.38;23.33;;;4.60;99.90;;;;;;4964238;28;20508;-45
2024/03/12 01:26:52;;;;;;;35.30;24.08;;;4.60;99.90;;;;;;4942158;28;20030;-44
2024/03/12 01:29:19;;;;;;;35.00;23.98;;;4.60;99.90;;;;;;4943661;28;20057;-46
2024/03/12 01:31:44;;;;;;;34.53;22.63;;;4.50;99.90;;;;;;4937320;28;20025;-47
2024/03/12 01:34:10;;;;;;;35.55;24.35;;;4.50;99.90;;;;;;4972936;28;20026;-44
2024/03/12 01:36:37;;;;;;;34.97;25.02;;;4.60;99.90;;;;;;4945223;28;20030;-45
2024/03/12 01:39:07;;;;;;;39.47;25.40;;;4.50;99.90;;;;;;4964394;28;20092;-46
2024/03/12 01:41:34;;;;;;;37.05;23.90;;;4.50;99.90;;;;;;4942363;28;20076;-47
2024/03/12 01:44:02;;;;;;;34.33;23.20;;;4.40;99.90;;;;;;4910026;28;20041;-44
2024/03/12 01:46:31;;;;;;;30.08;22.50;;;4.40;99.90;;;;;;4934376;28;20021;-47
2024/03/12 01:48:58;;;;;;;30.27;22.65;;;4.40;99.90;;;;;;4965575;28;20133;-45
2024/03/12 01:51:26;;;;;;;33.35;23.42;;;4.40;99.90;;;;;;4966768;28;20545;-44
2024/03/12 01:53:52;;;;;;;31.98;22.77;;;4.40;99.90;;;;;;4931660;28;20054;-44
2024/03/12 01:56:18;;;;;;;32.83;22.65;;;4.30;99.90;;;;;;4930972;28;20113;-46
2024/03/12 01:58:44;;;;;;;32.17;22.50;;;4.30;99.90;;;;;;4927699;28;20406;-47
2024/03/12 02:01:10;;;;;;;32.05;23.33;;;4.30;99.90;;;;;;4958956;28;20045;-45
2024/03/12 02:03:36;;;;;;;35.08;23.40;;;4.30;99.90;;;;;;4928426;28;20033;-47
2024/03/12 02:06:02;;;;;;;33.92;23.40;;;4.30;99.90;;;;;;4963216;28;20133;-46
2024/03/12 02:08:29;;;;;;;31.90;22.10;;;4.30;99.90;;;;;;4934311;28;20043;-47
2024/03/12 02:10:54;;;;;;;30.25;21.38;;;4.30;99.90;;;;;;4931142;28;20660;-44
2024/03/12 02:13:21;;;;;;;29.38;21.13;;;4.30;99.90;;;;;;4909923;28;20099;-47
2024/03/12 02:15:46;;;;;;;30.27;21.35;;;4.30;99.90;;;;;;4971664;28;20422;-45
2024/03/12 02:18:12;;;;;;;32.00;22.02;;;4.30;99.90;;;;;;4957236;28;20054;-47
2024/03/12 02:20:38;;;;;;;28.55;20.48;;;4.30;99.90;;;;;;4931746;28;20489;-46
2024/03/12 02:23:04;;;;;;;30.60;21.63;;;4.30;99.90;;;;;;4916583;28;20048;-47
2024/03/12 02:25:30;;;;;;;33.40;21.50;;;4.20;99.90;;;;;;4929135;28;20080;-43
2024/03/12 02:27:56;;;;;;;26.05;20.17;;;4.20;99.90;;;;;;4973785;28;20038;-43
2024/03/12 02:30:22;;;;;;;28.63;20.48;;;4.20;99.90;;;;;;4953505;28;20057;-45
2024/03/12 02:32:47;;;;;;;27.70;21.13;;;4.20;99.90;;;;;;4926895;28;20737;-44
2024/03/12 02:35:15;;;;;;;28.42;19.23;;;4.20;99.90;;;;;;4929262;28;20033;-46
2024/03/12 02:37:41;;;;;;;28.55;20.65;;;4.20;99.90;;;;;;4940413;28;20089;-45
2024/03/12 02:40:14;;;;;;;29.75;19.67;;;4.20;99.90;;;;;;4963998;28;20524;-44
2024/03/12 02:42:41;;;;;;;29.13;19.63;;;4.20;99.90;;;;;;4957481;28;20121;-44
2024/03/12 02:45:07;;;;;;;28.70;19.35;;;4.10;99.90;;;;;;4976026;28;20026;-45
2024/03/12 02:47:32;;;;;;;25.92;18.80;;;4.10;99.90;;;;;;4951615;28;20051;-48
2024/03/12 02:49:59;;;;;;;31.73;20.05;;;4.10;99.90;;;;;;4949742;28;20033;-44
2024/03/12 02:52:25;;;;;;;28.33;19.92;;;4.10;99.90;;;;;;4948823;28;20037;-45
2024/03/12 02:54:50;;;;;;;48.10;21.13;;;4.10;99.90;;;;;;4990567;28;21690;-45
2024/03/12 02:57:17;;;;;;;24.45;19.52;;;4.00;99.90;;;;;;4963913;28;20065;-46
2024/03/12 02:59:43;;;;;;;29.63;21.10;;;4.00;99.90;;;;;;4946231;28;20036;-45
2024/03/12 03:02:09;;;;;;;39.80;19.30;;;4.00;99.90;;;;;;4933193;28;20060;-47
2024/03/12 03:04:36;;;;;;;29.42;19.85;;;4.00;99.90;;;;;;4935701;28;20053;-45
2024/03/12 03:07:04;;;;;;;27.38;19.13;;;4.00;99.90;;;;;;4964341;28;20479;-45
2024/03/12 03:09:30;;;;;;;30.13;19.05;;;4.00;99.90;;;;;;4959161;28;20033;-52
2024/03/12 03:11:58;;;;;;;27.50;19.52;;;4.00;99.90;;;;;;4941732;28;20533;-45
2024/03/12 03:14:23;;;;;;;24.95;18.83;;;4.00;99.90;;;;;;4941689;28;20034;-45
2024/03/12 03:16:49;;;;;;;27.10;18.85;;;4.00;99.90;;;;;;4933294;28;20030;-47
2024/03/12 03:19:15;;;;;;;35.45;20.63;;;4.00;99.90;;;;;;4934113;28;20494;-53
2024/03/12 03:21:40;;;;;;;29.23;19.33;;;4.00;99.90;;;;;;4920659;28;20395;-48
2024/03/12 03:24:06;;;;;;;23.45;18.38;;;4.00;99.90;;;;;;4978347;28;20113;-47
2024/03/12 03:26:31;;;;;;;24.98;18.90;;;3.90;99.90;;;;;;4944807;28;20122;-46
2024/03/12 03:28:57;;;;;;;26.73;19.50;;;4.00;99.90;;;;;;4911763;28;20050;-46
2024/03/12 03:31:24;;;;;;;22.63;17.58;;;3.90;99.90;;;;;;4940992;28;20034;-44
2024/03/12 03:33:50;;;;;;;24.63;18.02;;;3.90;99.90;;;;;;4960741;28;21585;-46
2024/03/12 03:36:16;;;;;;;29.73;20.52;;;3.90;99.90;;;;;;4948186;28;20406;-47
2024/03/12 03:38:43;;;;;;;24.20;18.85;;;3.90;99.90;;;;;;4921770;28;20037;-46
2024/03/12 03:41:09;;;;;;;25.15;17.75;;;3.90;99.90;;;;;;4916472;28;20054;-50
2024/03/12 03:43:35;;;;;;;26.25;17.55;;;3.90;99.90;;;;;;4916107;28;22867;-45
2024/03/12 03:46:01;;;;;;;24.67;17.17;;;3.90;99.90;;;;;;4963255;28;20036;-47
2024/03/12 03:48:27;;;;;;;28.75;18.85;;;3.80;99.90;;;;;;4976656;28;20049;-45
2024/03/12 03:50:53;;;;;;;23.50;18.58;;;3.90;99.90;;;;;;4918951;28;20022;-45
2024/03/12 03:53:18;;;;;;;23.60;16.45;;;3.90;99.90;;;;;;4939687;28;20393;-44
2024/03/12 03:55:45;;;;;;;24.88;17.90;;;3.90;99.90;;;;;;4935073;28;20059;-44
2024/03/12 03:58:11;;;;;;;22.00;16.92;;;3.90;99.90;;;;;;4954172;28;20115;-52
2024/03/12 04:00:36;;;;;;;23.63;17.75;;;3.80;99.90;;;;;;4937573;28;20497;-53
2024/03/12 04:03:04;;;;;;;24.25;18.33;;;3.80;99.90;;;;;;4949032;28;20030;-44
2024/03/12 04:05:32;;;;;;;27.98;19.00;;;3.80;99.90;;;;;;4942524;28;20068;-44
2024/03/12 04:07:58;;;;;;;24.20;17.80;;;3.80;99.90;;;;;;4931186;28;20026;-45
2024/03/12 04:10:24;;;;;;;23.95;16.60;;;3.80;99.90;;;;;;4937315;28;20033;-45
2024/03/12 04:12:51;;;;;;;25.75;17.30;;;3.70;99.90;;;;;;4948422;28;21807;-43
2024/03/12 04:15:18;;;;;;;23.35;17.92;;;3.70;99.90;;;;;;4976845;28;20045;-44
2024/03/12 04:17:43;;;;;;;23.25;18.35;;;3.70;99.90;;;;;;4916293;28;20022;-53
2024/03/12 04:20:11;;;;;;;24.10;17.55;;;3.70;99.90;;;;;;4919823;28;20044;-49
2024/03/12 04:22:43;;;;;;;26.40;17.75;;;3.70;99.90;;;;;;4935462;28;20406;-46
2024/03/12 04:25:09;;;;;;;27.92;18.48;;;3.70;99.90;;;;;;4939838;28;20072;-44
2024/03/12 04:27:38;;;;;;;23.40;17.60;;;3.60;99.90;;;;;;4943563;28;20049;-52
2024/03/12 04:30:09;;;;;;;23.67;17.30;;;3.70;99.90;;;;;;4927477;28;21912;-44
2024/03/12 04:32:35;;;;;;;24.08;16.60;;;3.60;99.90;;;;;;4977888;23;20103;-51
2024/03/12 04:35:04;;;;;;;26.65;18.40;;;3.60;99.90;;;;;;4916408;28;20046;-52
2024/03/12 04:37:32;;;;;;;23.42;17.73;;;3.60;99.90;;;;;;4910731;28;20030;-52
2024/03/12 04:40:06;;;;;;;24.08;18.58;;;3.60;99.90;;;;;;4942960;28;21777;-51
2024/03/12 04:42:35;;;;;;;22.63;17.45;;;3.60;99.90;;;;;;4956153;28;20553;-59
2024/03/12 04:45:01;;;;;;;21.95;17.35;;;3.60;99.90;;;;;;4947716;28;20034;-55
2024/03/12 04:47:26;;;;;;;24.73;18.38;;;3.60;99.90;;;;;;4935392;28;20018;-52
2024/03/12 04:49:53;;;;;;;23.00;18.25;;;3.60;99.90;;;;;;4922442;28;20722;-52
2024/03/12 04:52:19;;;;;;;22.60;16.58;;;3.60;99.90;;;;;;4919001;28;20032;-50
2024/03/12 04:54:44;;;;;;;25.00;17.58;;;3.60;99.90;;;;;;4933675;28;20037;-50
2024/03/12 04:57:10;;;;;;;22.85;17.98;;;3.50;99.90;;;;;;4976105;28;20030;-51
2024/03/12 04:59:35;;;;;;;23.45;17.48;;;3.50;99.90;;;;;;4937524;28;20029;-52
2024/03/12 05:02:01;;;;;;;21.15;16.08;;;3.50;99.90;;;;;;4904635;28;20045;-51
2024/03/12 05:04:27;;;;;;;23.33;18.08;;;3.50;99.90;;;;;;4919997;28;20121;-54
2024/03/12 05:06:52;;;;;;;23.80;17.73;;;3.50;99.90;;;;;;4941417;28;22105;-53
2024/03/12 05:09:18;;;;;;;23.08;17.15;;;3.50;99.90;;;;;;4951383;28;20124;-51
2024/03/12 05:11:44;;;;;;;23.90;17.50;;;3.50;99.90;;;;;;4902753;28;20018;-59
2024/03/12 05:14:10;;;;;;;21.42;17.02;;;3.50;99.90;;;;;;4948668;28;20144;-54
2024/03/12 05:16:36;;;;;;;23.08;18.77;;;3.50;99.90;;;;;;4966471;28;20154;-54
2024/03/12 05:19:01;;;;;;;24.65;18.58;;;3.50;99.90;;;;;;4972452;28;20064;-54
2024/03/12 05:21:27;;;;;;;22.92;16.90;;;3.50;99.90;;;;;;4981304;28;20056;-53
2024/03/12 05:23:54;;;;;;;21.65;15.95;;;3.50;99.90;;;;;;4938939;28;20038;-54
2024/03/12 05:26:29;;;;;;;24.55;17.90;;;3.50;99.90;;;;;;4967114;28;20027;-53
2024/03/12 05:28:57;;;;;;;26.00;17.85;;;3.50;99.90;;;;;;4947326;28;20032;-54
2024/03/12 05:31:31;;;;;;;24.85;18.52;;;3.50;99.90;;;;;;4950610;28;20061;-51
2024/03/12 05:34:02;;;;;;;25.30;18.27;;;3.50;99.90;;;;;;4962631;28;20559;-55
2024/03/12 05:36:40;;;;;;;24.25;18.63;;;3.50;99.90;;;;;;4976714;28;20049;-51
2024/03/12 05:39:18;;;;;;;23.50;17.20;;;3.60;99.90;;;;;;4977277;28;20444;-53
2024/03/12 05:48:07;;;;;;;24.75;17.10;;;3.50;99.90;;;;;;4941029;28;20022;-59
2024/03/12 05:50:09;;;;;;;23.20;17.58;;;3.60;99.90;;;;;;4932174;28;20056;-51
2024/03/12 05:52:35;;;;;;;23.90;18.02;;;3.70;99.90;;;;;;4882145;28;20441;-53
2024/03/12 05:55:01;;;;;;;24.48;17.98;;;3.70;99.90;;;;;;4963829;28;20085;-55
2024/03/12 05:57:28;;;;;;;24.40;17.30;;;3.70;99.90;;;;;;4990687;28;20083;-56
2024/03/12 05:59:53;;;;;;;21.17;16.10;;;3.70;99.90;;;;;;4930989;28;20033;-52
2024/03/12 06:02:19;;;;;;;24.55;18.10;;;3.70;99.90;;;;;;4935218;28;20030;-55
2024/03/12 06:04:44;;;;;;;22.45;17.17;;;3.70;99.90;;;;;;4958281;28;20485;-55
2024/03/12 06:07:12;;;;;;;23.23;17.75;;;3.80;99.90;;;;;;4912307;28;20018;-56
2024/03/12 06:09:37;;;;;;;24.33;18.52;;;3.80;99.90;;;;;;4941877;28;20030;-56
2024/03/12 06:12:03;;;;;;;22.88;17.38;;;3.80;99.90;;;;;;4964596;28;21782;-53
2024/03/12 06:14:31;;;;;;;25.30;19.50;;;3.80;99.90;;;;;;4940143;28;20022;-56
2024/03/12 06:16:57;;;;;;;26.15;17.85;;;3.80;99.90;;;;;;4962064;28;20023;-51
2024/03/12 06:19:23;;;;;;;24.80;17.50;;;3.80;99.90;;;;;;4920786;28;20036;-52
2024/03/12 06:21:48;;;;;;;26.92;18.42;;;3.90;99.90;;;;;;4942622;28;20038;-53
2024/03/12 06:24:14;;;;;;;27.08;18.67;;;3.90;99.90;;;;;;4988327;28;20068;-52
2024/03/12 06:26:39;;;;;;;25.25;19.25;;;3.90;99.90;;;;;;4954282;28;20026;-54
2024/03/12 06:29:06;;;;;;;25.33;19.00;;;3.90;99.90;;;;;;4937741;28;20417;-53
2024/03/12 06:31:32;;;;;;;28.23;19.20;;;3.90;99.90;;;;;;4943152;28;20395;-56
2024/03/12 06:33:59;;;;;;;26.33;18.65;;;3.90;99.90;;;;;;4926394;28;20057;-53
2024/03/12 06:36:25;;;;;;;25.60;18.50;;;3.90;99.90;;;;;;4947481;28;20091;-55
2024/03/12 06:38:52;;;;;;;24.55;18.10;;;3.90;99.90;;;;;;4967112;28;20030;-52
2024/03/12 06:41:17;;;;;;;22.52;18.10;;;4.00;99.90;;;;;;4953751;28;20030;-54
2024/03/12 06:43:43;;;;;;;27.48;19.05;;;4.00;99.90;;;;;;4942005;28;20083;-53
2024/03/12 06:46:09;;;;;;;27.15;19.52;;;4.00;99.90;;;;;;4924199;28;20320;-54
2024/03/12 06:48:36;;;;;;;23.90;17.83;;;4.00;99.90;;;;;;4961070;28;20050;-59
2024/03/12 06:51:03;;;;;;;24.42;18.98;;;4.10;99.90;;;;;;4980697;28;20109;-53
2024/03/12 06:53:29;;;;;;;25.67;18.55;;;4.10;99.90;;;;;;4938379;28;20087;-55
2024/03/12 06:55:54;;;;;;;23.80;18.48;;;4.10;99.90;;;;;;4966067;28;20030;-54
2024/03/12 06:58:21;;;;;;;24.73;18.77;;;4.10;99.90;;;;;;4948344;28;20026;-55
2024/03/12 07:00:50;;;;;;;25.83;19.58;;;4.20;99.90;;;;;;4923207;28;20026;-52
2024/03/12 07:03:18;;;;;;;25.48;18.75;;;4.20;99.90;;;;;;4985660;28;20041;-55
2024/03/12 07:05:46;;;;;;;26.55;18.75;;;4.20;99.90;;;;;;4944874;28;20030;-57
2024/03/12 07:08:14;;;;;;;24.65;18.65;;;4.20;99.90;;;;;;4954528;28;20018;-59
2024/03/12 07:10:42;;;;;;;24.15;18.60;;;4.20;99.90;;;;;;4972903;28;20022;-54
2024/03/12 07:13:08;;;;;;;27.08;19.58;;;4.20;99.90;;;;;;4938324;28;20049;-56
2024/03/12 07:15:44;;;;;;;23.92;18.10;;;4.30;99.90;;;;;;4962690;28;20042;-58
2024/03/12 07:18:11;;;;;;;24.05;19.38;;;4.30;99.90;;;;;;4982227;28;20703;-52
2024/03/12 07:20:37;;;;;;;25.77;18.92;;;4.30;99.90;;;;;;4915691;28;20045;-50
2024/03/12 07:23:04;;;;;;;24.00;19.25;;;4.40;99.90;;;;;;4945497;28;20112;-51
2024/03/12 07:25:30;;;;;;;25.08;18.17;;;4.40;99.90;;;;;;4933338;28;20046;-52
2024/03/12 07:27:59;;;;;;;25.80;18.42;;;4.40;99.90;;;;;;4915125;28;22798;-54
2024/03/12 07:30:24;;;;;;;25.60;18.77;;;4.40;99.90;;;;;;4980664;28;20022;-54
2024/03/12 07:32:51;;;;;;;24.75;18.85;;;4.50;99.90;;;;;;4969458;28;20064;-53
2024/03/12 07:35:17;;;;;;;26.60;18.98;;;4.50;99.90;;;;;;4962510;28;20041;-52
2024/03/12 07:37:43;;;;;;;22.10;17.67;;;4.50;99.90;;;;;;4983372;28;20026;-51
2024/03/12 07:40:09;;;;;;;24.20;19.17;;;4.50;99.90;;;;;;4971230;28;20509;-53
2024/03/12 07:42:36;;;;;;;27.88;18.80;;;4.50;99.90;;;;;;4970538;28;20089;-55
2024/03/12 07:45:01;;;;;;;22.83;17.88;;;4.60;99.90;;;;;;4949848;28;20049;-52
2024/03/12 07:47:29;;;;;;;22.98;18.13;;;4.60;99.90;;;;;;4949589;28;20026;-55
2024/03/12 07:49:54;;;;;;;25.58;18.50;;;4.60;99.90;;;;;;4977327;28;20494;-54
2024/03/12 07:52:20;;;;;;;25.75;19.35;;;4.60;99.90;;;;;;4972020;28;20056;-54
2024/03/12 07:54:47;;;;;;;25.05;18.55;;;4.70;99.90;;;;;;4962860;28;20233;-59
2024/03/12 07:57:13;;;;;;;24.27;18.48;;;4.70;99.90;;;;;;4964509;28;20068;-54
2024/03/12 07:59:38;;;;;;;22.58;17.30;;;4.70;99.90;;;;;;4937724;28;20113;-52
2024/03/12 08:02:11;;;;;;;23.70;17.63;;;4.70;99.90;;;;;;4976175;28;20029;-53
2024/03/12 08:04:42;;;;;;;24.10;17.90;;;4.80;99.90;;;;;;4948449;28;20452;-55
2024/03/12 08:07:09;;;;;;;21.95;17.33;;;4.80;99.90;;;;;;4962758;28;20581;-52
2024/03/12 08:09:35;;;;;;;24.92;18.15;;;4.80;99.90;;;;;;4964065;28;20029;-54
2024/03/12 08:12:01;;;;;;;24.38;18.17;;;4.90;99.90;;;;;;4928837;28;20113;-55
2024/03/12 08:14:28;;;;;;;25.50;17.60;;;4.90;99.90;;;;;;4958167;28;20022;-51
2024/03/12 08:16:54;;;;;;;22.58;18.23;;;4.90;99.90;;;;;;4993370;28;20029;-54
2024/03/12 08:19:25;;;;;;;27.38;19.83;;;4.90;99.90;;;;;;4953290;28;20418;-52
2024/03/12 08:21:51;;;;;;;24.38;18.42;;;5.00;99.90;;;;;;4948009;28;20545;-53
2024/03/12 08:24:17;;;;;;;24.88;17.45;;;5.00;99.90;;;;;;4961967;28;20026;-50
2024/03/12 08:26:43;;;;;;;23.02;17.70;;;5.00;99.90;;;;;;4951898;28;20022;-53
2024/03/12 08:29:09;;;;;;;24.13;17.73;;;5.10;99.90;;;;;;4985070;28;20026;-53
2024/03/12 08:31:38;;;;;;;20.67;16.17;;;5.10;99.90;;;;;;4951999;28;20047;-56
2024/03/12 08:34:04;;;;;;;23.23;18.13;;;5.10;99.90;;;;;;4964317;28;21234;-53
2024/03/12 08:36:29;;;;;;;19.65;16.13;;;5.20;99.90;;;;;;4957230;28;20030;-53
2024/03/12 08:38:58;;;;;;;21.63;16.77;;;5.20;99.90;;;;;;4918464;28;20088;-51
2024/03/12 08:41:24;;;;;;;23.27;17.38;;;5.20;99.90;;;;;;4950035;28;20406;-52
2024/03/12 08:43:49;;;;;;;22.38;17.42;;;5.30;99.90;;;;;;4956262;28;20032;-53
2024/03/12 08:46:16;;;;;;;22.95;16.90;;;5.30;99.90;;;;;;4958539;28;20038;-55
2024/03/12 08:48:42;;;;;;;28.25;17.92;;;5.30;99.90;;;;;;4955796;28;20494;-59
2024/03/12 08:51:08;;;;;;;27.65;17.63;;;5.30;99.90;;;;;;4942200;28;20388;-52
2024/03/12 08:53:34;;;;;;;24.23;18.15;;;5.40;99.90;;;;;;4922383;28;20644;-56
2024/03/12 08:56:01;;;;;;;25.95;17.88;;;5.40;99.90;;;;;;4968275;28;20033;-53
2024/03/12 08:58:26;;;;;;;24.58;18.73;;;5.40;99.90;;;;;;4948380;28;20041;-53
2024/03/12 09:00:53;;;;;;;22.83;18.48;;;5.50;99.90;;;;;;4934627;28;20022;-54
2024/03/12 09:03:19;;;;;;;24.92;18.60;;;5.50;99.90;;;;;;4950908;28;20060;-50
2024/03/12 09:05:45;;;;;;;22.33;17.92;;;5.50;99.90;;;;;;4914987;28;20030;-52
2024/03/12 09:08:11;;;;;;;24.67;17.25;;;5.50;99.90;;;;;;4954730;28;20026;-53
2024/03/12 09:10:37;;;;;;;23.48;18.10;;;5.60;99.90;;;;;;4943885;28;20048;-54
2024/03/12 09:13:03;;;;;;;23.55;19.02;;;5.60;99.90;;;;;;4946231;28;20044;-51
2024/03/12 09:15:32;;;;;;;23.60;17.60;;;5.70;99.90;;;;;;4950242;28;20079;-55
2024/03/12 09:18:04;;;;;;;21.55;16.80;;;5.70;99.90;;;;;;4911438;28;20099;-55
2024/03/12 09:20:30;;;;;;;23.88;17.67;;;5.80;99.90;;;;;;4931988;28;20036;-53
2024/03/12 09:22:56;;;;;;;22.52;17.50;;;5.80;99.90;;;;;;4973294;28;21193;-55
2024/03/12 09:25:23;;;;;;;25.88;19.40;;;5.90;99.90;;;;;;4946481;28;20089;-54
2024/03/12 09:27:48;;;;;;;21.88;17.05;;;5.80;99.90;;;;;;4915907;28;20022;-59
2024/03/12 09:30:16;;;;;;;22.13;17.45;;;5.90;99.90;;;;;;4941665;28;20038;-54
2024/03/12 09:32:44;;;;;;;24.83;18.35;;;5.90;99.90;;;;;;4935642;28;20525;-54
2024/03/12 09:35:09;;;;;;;22.88;17.27;;;5.90;99.90;;;;;;4970835;28;20038;-53
2024/03/12 09:37:37;;;;;;;21.00;16.30;;;6.00;99.90;;;;;;4933769;28;20529;-53
2024/03/12 09:40:05;;;;;;;21.80;16.88;;;6.00;99.90;;;;;;4961967;28;20022;-55
2024/03/12 09:42:32;;;;;;;21.83;16.92;;;6.10;99.90;;;;;;4942353;28;20562;-54
2024/03/12 09:44:58;;;;;;;21.55;17.08;;;6.10;99.90;;;;;;4932925;28;20120;-54
2024/03/12 09:47:24;;;;;;;23.13;17.33;;;6.20;99.90;;;;;;4938600;28;20114;-53
2024/03/12 09:49:50;;;;;;;23.83;18.60;;;6.30;99.90;;;;;;4978411;28;20479;-52
2024/03/12 09:52:16;;;;;;;22.13;16.83;;;6.30;99.90;;;;;;4956562;28;20129;-53
2024/03/12 09:54:42;;;;;;;25.98;18.52;;;6.30;99.90;;;;;;4935370;28;20585;-61
2024/03/12 09:57:10;;;;;;;25.55;17.33;;;6.40;99.90;;;;;;4932573;28;20402;-50
2024/03/12 09:59:36;;;;;;;21.52;16.92;;;6.40;99.90;;;;;;4931033;28;21777;-53
2024/03/12 10:02:03;;;;;;;20.45;16.45;;;6.50;99.90;;;;;;4958280;28;20188;-53
2024/03/12 10:04:28;;;;;;;20.45;16.90;;;6.50;99.90;;;;;;4943584;28;20061;-54
2024/03/12 10:06:55;;;;;;;20.95;16.80;;;6.60;99.90;;;;;;4927278;28;20107;-50
2024/03/12 10:09:27;;;;;;;23.08;17.42;;;6.70;99.90;;;;;;4933319;28;20022;-51
2024/03/12 10:11:54;;;;;;;21.67;17.45;;;6.70;99.90;;;;;;4923737;28;20033;-52
2024/03/12 10:14:22;;;;;;;21.88;17.25;;;6.80;99.90;;;;;;4927584;28;20037;-59
2024/03/12 10:16:49;;;;;;;20.95;16.77;;;6.80;99.90;;;;;;4970184;28;20059;-50
2024/03/12 10:19:15;;;;;;;24.60;18.20;;;6.80;99.90;;;;;;4955189;28;20121;-52
2024/03/12 10:21:41;;;;;;;24.40;17.27;;;6.90;99.90;;;;;;4931714;28;20034;-50
2024/03/12 10:24:14;;;;;;;23.35;18.52;;;7.00;99.90;;;;;;4931394;28;20536;-54
2024/03/12 10:26:44;;;;;;;24.70;17.85;;;7.10;99.90;;;;;;4898484;28;22468;-54
2024/03/12 10:29:18;;;;;;;23.02;17.27;;;7.20;99.90;;;;;;4965722;28;20056;-50
2024/03/12 10:31:47;;;;;;;25.85;17.95;;;7.20;99.90;;;;;;4961712;28;20056;-55
2024/03/12 10:34:17;;;;;;;21.50;16.48;;;7.20;99.90;;;;;;4981099;23;20046;-48
2024/03/12 10:36:44;;;;;;;24.00;18.13;;;7.30;99.90;;;;;;4927249;28;20030;-47
2024/03/12 10:39:25;;;;;;;20.83;17.02;;;7.30;99.90;;;;;;4943247;28;20026;-45
2024/03/12 10:42:00;;;;;;;19.70;16.42;;;7.30;99.90;;;;;;4924970;28;20497;-46
2024/03/12 10:44:30;;;;;;;20.20;15.55;;;7.30;99.90;;;;;;4931498;28;20033;-45
2024/03/12 10:46:58;;;;;;;22.90;16.45;;;7.40;99.90;;;;;;4961933;28;20554;-46
2024/03/12 10:49:25;;;;;;;21.98;16.20;;;7.50;99.90;;;;;;4930502;28;20037;-45
2024/03/12 10:51:53;;;;;;;21.23;16.83;;;7.50;99.90;;;;;;4941467;28;20021;-49
2024/03/12 10:54:22;;;;;;;21.20;16.35;;;7.60;99.90;;;;;;4930593;28;20040;-45
2024/03/12 10:56:48;;;;;;;23.90;17.55;;;7.70;99.90;;;;;;4901416;28;20491;-45
2024/03/12 10:59:16;;;;;;;19.45;15.55;;;7.70;99.90;;;;;;4959177;28;20030;-53
2024/03/12 11:01:42;;;;;;;20.48;15.60;;;7.80;99.90;;;;;;4931644;28;21244;-49
2024/03/12 11:04:09;;;;;;;20.92;16.08;;;7.80;99.90;;;;;;4926415;28;20511;-48
2024/03/12 11:06:38;;;;;;;22.30;16.13;;;7.90;99.90;;;;;;4923802;28;20026;-45
2024/03/12 11:09:08;;;;;;;21.35;16.17;;;8.00;99.90;;;;;;4927333;28;20030;-44
2024/03/12 11:11:34;;;;;;;23.73;17.05;;;8.10;99.90;;;;;;4901278;28;21037;-46
2024/03/12 11:14:04;;;;;;;22.13;15.98;;;8.20;99.90;;;;;;4962153;28;20082;-47
2024/03/12 11:16:36;;;;;;;19.40;15.73;;;8.30;99.90;;;;;;4948718;28;20022;-44
2024/03/12 11:19:23;;;;;;;21.95;16.95;;;8.40;99.90;;;;;;4934713;28;21396;-45
2024/03/12 11:21:50;;;;;;;19.50;15.68;;;8.60;99.90;;;;;;4901393;28;20088;-45
2024/03/12 11:24:26;;;;;;;25.02;16.38;;;8.90;99.90;;;;;;4922461;28;20064;-45
2024/03/12 11:26:52;;;;;;;20.80;15.88;;;9.10;99.90;;;;;;4885555;28;20021;-46
2024/03/12 11:29:18;;;;;;;20.00;15.77;;;9.30;99.90;;;;;;4931974;28;20645;-54
2024/03/12 11:31:43;;;;;;;19.83;15.15;;;9.50;99.90;;;;;;4935537;28;20536;-44
2024/03/12 11:34:10;;;;;;;23.83;16.58;;;9.70;99.90;;;;;;4892200;28;21363;-45
2024/03/12 11:36:46;;;;;;;22.98;16.63;;;9.90;99.90;;;;;;4917859;28;20456;-46
2024/03/12 11:39:12;;;;;;;;;;;10.00;99.90;;;;;;4908761;28;20030;-43
2024/03/12 11:41:56;;;;;;;20.73;15.52;;;10.00;99.90;;;;;;4884972;28;21268;-44
2024/03/12 11:44:49;;;;;;;23.45;17.45;;;10.20;99.90;;;;;;4912293;28;20036;-51
2024/03/12 11:47:40;;;;;;;24.27;16.73;;;10.30;99.90;;;;;;4924334;28;20037;-48
2024/03/12 11:50:33;;;;;;;31.55;22.33;;;10.50;99.90;;;;;;4973935;28;20029;-44
2024/03/12 11:53:21;;;;;;;30.73;20.67;;;10.60;99.90;;;;;;4990412;28;20381;-46
2024/03/12 11:55:57;;;;;;;32.72;22.55;;;10.70;99.90;;;;;;4975997;28;20105;-46
2024/03/12 11:58:27;;;;;;;33.20;21.40;;;10.80;99.90;;;;;;4974869;28;20120;-47
2024/03/12 12:00:53;;;;;;;33.22;23.50;;;10.90;99.90;;;;;;4965787;28;20038;-46
2024/03/12 12:03:19;;;;;;;33.50;21.92;;;11.00;99.90;;;;;;4974394;28;20285;-44
2024/03/12 12:05:45;;;;;;;32.08;21.63;;;11.00;99.90;;;;;;4972357;28;20030;-44
2024/03/12 12:08:10;;;;;;;30.25;21.38;;;11.00;99.90;;;;;;4989536;28;20518;-46
2024/03/12 12:10:36;;;;;;;29.33;21.88;;;10.90;99.90;;;;;;4957279;28;20071;-50
2024/03/12 12:13:15;;;;;;;29.63;20.30;;;10.90;99.90;;;;;;4980764;28;21457;-44
2024/03/12 12:16:07;;;;;;;30.58;21.15;;;10.90;99.90;;;;;;4967485;28;20022;-47
2024/03/12 12:18:34;;;;;;;27.58;19.77;;;10.80;99.90;;;;;;4968021;28;20553;-44
2024/03/12 12:21:08;;;;;;;28.27;18.88;;;10.90;99.90;;;;;;4946930;28;20063;-45
2024/03/12 12:23:36;;;;;;;30.15;21.00;;;10.90;99.90;;;;;;4950505;28;20033;-48
2024/03/12 12:26:05;;;;;;;27.38;20.25;;;11.00;99.90;;;;;;4975877;28;20518;-44
2024/03/12 12:28:31;;;;;;;31.08;22.75;;;11.00;99.90;;;;;;4980991;28;20044;-46
2024/03/12 12:31:01;;;;;;;30.65;19.77;;;11.10;99.90;;;;;;4955235;28;20104;-48
2024/03/12 12:33:28;;;;;;;30.30;21.40;;;11.20;99.90;;;;;;4965913;28;20650;-47
2024/03/12 12:35:56;;;;;;;29.77;20.45;;;11.20;99.90;;;;;;4963382;28;20029;-48
2024/03/12 12:38:23;;;;;;;27.25;18.58;;;11.20;99.90;;;;;;4947813;28;20038;-52
2024/03/12 12:40:49;;;;;;;31.15;20.35;;;11.20;99.90;;;;;;4962599;28;20108;-48
2024/03/12 12:43:19;;;;;;;30.40;20.77;;;11.20;99.90;;;;;;4958933;28;21895;-44